Time;durP1;ratioP1;P1;durP2;ratioP2;P2;SDS_P1;SDS_P2;PMS_P1;PMS_P2;Temp;Humidity;BMP_temperature;BMP_pressure;BME280_temperature;BME280_humidity;BME280_pressure;Samples;Min_cycle;Max_cycle;Signal;HPM_P1;HPM_P2
2021/08/24 00:00:18;;;;;;;5.22;3.63;;;15.80;99.90;;;;;;4988345;28;20222;-84
2021/08/24 00:02:47;;;;;;;6.03;3.47;;;15.80;99.90;;;;;;4987416;28;20528;-81
2021/08/24 00:05:20;;;;;;;7.70;4.07;;;15.80;99.90;;;;;;4988300;28;20212;-81
2021/08/24 00:07:47;;;;;;;6.37;4.13;;;15.80;99.90;;;;;;4986988;28;20200;-83
2021/08/24 00:10:13;;;;;;;4.80;3.70;;;15.80;99.90;;;;;;4983289;28;20201;-80
2021/08/24 00:12:40;;;;;;;7.45;4.40;;;15.80;99.90;;;;;;4971489;28;20212;-82
2021/08/24 00:15:10;;;;;;;5.53;4.00;;;15.80;99.90;;;;;;4970833;28;20232;-81
2021/08/24 00:17:37;;;;;;;7.35;3.97;;;15.80;99.90;;;;;;4988660;28;20203;-83
2021/08/24 00:20:06;;;;;;;4.50;3.53;;;15.80;99.90;;;;;;4992686;28;20223;-81
2021/08/24 00:22:33;;;;;;;6.15;3.85;;;15.80;99.90;;;;;;4992483;28;20200;-86
2021/08/24 00:25:00;;;;;;;5.90;4.50;;;15.90;99.90;;;;;;4993338;28;20222;-87
2021/08/24 00:27:26;;;;;;;5.93;3.45;;;15.90;99.90;;;;;;4993444;28;20776;-83
2021/08/24 00:29:53;;;;;;;7.50;4.53;;;15.80;99.90;;;;;;4976098;28;20212;-81
2021/08/24 00:32:20;;;;;;;6.38;3.67;;;15.80;99.90;;;;;;4973616;28;20247;-81
2021/08/24 00:34:47;;;;;;;5.77;3.93;;;15.80;99.90;;;;;;4973286;28;20236;-85
2021/08/24 00:37:15;;;;;;;6.60;3.83;;;15.80;99.90;;;;;;4974231;28;20212;-86
2021/08/24 00:39:42;;;;;;;6.73;4.03;;;15.80;99.90;;;;;;4972997;28;20913;-86
2021/08/24 00:42:11;;;;;;;8.33;4.50;;;15.80;99.90;;;;;;4972923;28;20205;-85
2021/08/24 00:44:38;;;;;;;7.80;4.80;;;15.80;99.90;;;;;;4986830;28;20384;-87
2021/08/24 00:47:05;;;;;;;4.93;4.40;;;15.80;99.90;;;;;;4993018;28;20489;-86
2021/08/24 00:49:32;;;;;;;7.20;4.50;;;15.80;99.90;;;;;;5007008;28;20214;-83
2021/08/24 00:52:05;;;;;;;8.77;5.15;;;15.70;99.90;;;;;;5011692;28;20211;-84
2021/08/24 00:54:34;;;;;;;4.90;4.10;;;15.70;99.90;;;;;;5010249;28;20215;-85
2021/08/24 00:57:08;;;;;;;5.40;4.10;;;15.70;99.90;;;;;;4992731;28;20215;-86
2021/08/24 00:59:35;;;;;;;6.40;4.65;;;15.70;99.90;;;;;;4971267;28;20196;-86
2021/08/24 01:02:02;;;;;;;5.80;3.83;;;15.60;99.90;;;;;;4989489;28;20248;-83
2021/08/24 01:04:30;;;;;;;4.70;3.70;;;15.60;99.90;;;;;;4991438;28;20210;-86
2021/08/24 01:07:03;;;;;;;5.53;3.55;;;15.60;99.90;;;;;;4990885;28;20603;-85
2021/08/24 01:09:42;;;;;;;6.10;3.75;;;15.50;99.90;;;;;;4981527;28;20204;-83
2021/08/24 01:12:19;;;;;;;5.33;4.30;;;15.50;99.90;;;;;;4971678;28;20200;-83
2021/08/24 01:14:56;;;;;;;6.23;4.67;;;15.50;99.90;;;;;;4989472;28;20664;-85
2021/08/24 01:17:28;;;;;;;6.83;4.90;;;15.40;99.90;;;;;;4988992;28;20203;-83
2021/08/24 01:20:20;;;;;;;8.23;4.35;;;15.40;99.90;;;;;;4988849;28;20330;-82
2021/08/24 01:23:32;;;;;;;6.25;4.13;;;15.40;99.90;;;;;;4989313;28;20214;-84
2021/08/24 01:26:07;;;;;;;5.28;4.00;;;15.30;99.90;;;;;;4972751;28;20208;-85
2021/08/24 01:28:41;;;;;;;6.75;4.38;;;15.30;99.90;;;;;;4975553;28;20202;-82
2021/08/24 01:31:36;;;;;;;5.28;4.45;;;15.30;99.90;;;;;;4992415;28;20203;-84
2021/08/24 01:34:14;;;;;;;6.90;4.68;;;15.20;99.90;;;;;;4994169;28;20506;-87
2021/08/24 01:36:47;;;;;;;6.57;4.13;;;15.20;99.90;;;;;;4979693;28;20236;-83
2021/08/24 01:39:18;;;;;;;7.03;4.25;;;15.20;99.90;;;;;;4973898;28;20213;-85
2021/08/24 01:42:13;;;;;;;8.10;5.27;;;15.20;99.90;;;;;;4998434;28;20207;-83
2021/08/24 01:44:45;;;;;;;5.57;5.00;;;15.10;99.90;;;;;;5004255;28;20227;-83
2021/08/24 01:47:16;;;;;;;8.97;4.70;;;15.10;99.90;;;;;;5010122;28;20199;-83
2021/08/24 01:49:48;;;;;;;6.82;4.22;;;15.10;99.90;;;;;;5010031;28;20202;-83
2021/08/24 01:52:20;;;;;;;8.67;4.83;;;15.10;99.90;;;;;;5000444;28;20208;-81
2021/08/24 01:54:52;;;;;;;5.83;4.73;;;15.10;99.90;;;;;;4990475;28;20285;-82
2021/08/24 01:57:22;;;;;;;7.27;4.87;;;15.10;99.90;;;;;;4973536;28;20220;-84
2021/08/24 01:59:54;;;;;;;6.35;5.32;;;15.10;99.90;;;;;;4969510;28;20207;-84
2021/08/24 02:02:27;;;;;;;6.87;5.33;;;15.10;99.90;;;;;;4971751;28;20233;-86
2021/08/24 02:05:01;;;;;;;8.90;5.13;;;15.10;99.90;;;;;;4974947;28;20204;-84
2021/08/24 02:07:33;;;;;;;10.43;5.47;;;15.10;99.90;;;;;;4989725;28;20227;-87
2021/08/24 02:10:06;;;;;;;7.27;5.80;;;15.10;99.90;;;;;;4991616;28;20220;-85
2021/08/24 02:12:36;;;;;;;9.65;5.03;;;15.10;99.90;;;;;;4990887;28;20320;-81
2021/08/24 02:15:06;;;;;;;8.80;5.05;;;15.10;99.90;;;;;;4990325;28;20227;-83
2021/08/24 02:17:35;;;;;;;8.67;5.37;;;15.10;99.90;;;;;;4992653;28;20588;-86
2021/08/24 02:20:09;;;;;;;8.33;5.23;;;15.10;99.90;;;;;;5011494;28;20192;-86
2021/08/24 02:22:42;;;;;;;7.10;4.77;;;15.10;99.90;;;;;;5011134;28;20199;-83
2021/08/24 02:25:14;;;;;;;10.00;5.53;;;15.10;99.90;;;;;;5001736;28;20867;-86
2021/08/24 02:27:47;;;;;;;6.67;4.83;;;15.10;99.90;;;;;;4995815;28;20290;-84
2021/08/24 02:30:14;;;;;;;9.40;5.28;;;15.10;99.90;;;;;;5011724;28;20215;-84
2021/08/24 02:32:46;;;;;;;8.90;4.73;;;15.20;99.90;;;;;;5011908;28;20207;-87
2021/08/24 02:35:22;;;;;;;6.40;4.93;;;15.20;99.90;;;;;;5010800;28;20231;-87
2021/08/24 02:37:55;;;;;;;8.13;4.90;;;15.20;99.90;;;;;;4993895;28;20254;-88
2021/08/24 02:40:27;;;;;;;9.93;6.03;;;15.10;99.90;;;;;;4991358;28;20184;-83
2021/08/24 02:43:03;;;;;;;6.47;4.90;;;15.10;99.90;;;;;;4989543;28;20299;-88
2021/08/24 02:45:33;;;;;;;8.27;5.63;;;15.20;99.90;;;;;;4983613;28;20228;-85
2021/08/24 02:48:02;;;;;;;10.20;5.10;;;15.10;99.90;;;;;;4969065;28;20209;-80
2021/08/24 02:50:28;;;;;;;8.43;5.30;;;15.20;99.90;;;;;;4967626;28;20192;-80
2021/08/24 02:52:57;;;;;;;11.65;5.65;;;15.20;99.90;;;;;;4968011;28;20212;-80
2021/08/24 02:55:24;;;;;;;8.15;5.75;;;15.30;99.90;;;;;;4968247;28;20231;-81
2021/08/24 02:57:51;;;;;;;11.27;5.83;;;15.30;99.90;;;;;;4977427;28;20192;-90
2021/08/24 03:00:18;;;;;;;12.10;6.25;;;15.30;99.90;;;;;;4980027;28;20219;-88
2021/08/24 03:02:45;;;;;;;8.93;5.73;;;15.30;99.90;;;;;;4971531;28;20236;-86
2021/08/24 03:05:11;;;;;;;9.52;5.93;;;15.30;99.90;;;;;;4975173;28;20251;-87
2021/08/24 03:07:40;;;;;;;7.90;5.57;;;15.30;99.90;;;;;;4991213;28;20215;-87
2021/08/24 03:10:12;;;;;;;7.17;5.13;;;15.30;99.90;;;;;;4990365;28;20235;-82
2021/08/24 03:12:49;;;;;;;11.00;5.53;;;15.20;99.90;;;;;;4992523;28;20207;-87
2021/08/24 03:15:21;;;;;;;11.13;6.03;;;15.30;99.90;;;;;;4991428;28;20219;-83
2021/08/24 03:17:54;;;;;;;9.20;5.97;;;15.30;99.90;;;;;;4991703;28;20216;-87
2021/08/24 03:20:24;;;;;;;7.10;6.10;;;15.30;99.90;;;;;;4991918;28;20208;-87
2021/08/24 03:22:52;;;;;;;6.93;5.43;;;15.30;99.90;;;;;;4991471;28;20212;-87
2021/08/24 03:25:21;;;;;;;11.93;5.90;;;15.30;99.90;;;;;;4991400;28;20208;-88
2021/08/24 03:27:51;;;;;;;7.33;5.30;;;15.30;99.90;;;;;;5007907;28;20607;-88
2021/08/24 03:30:19;;;;;;;9.90;6.00;;;15.20;99.90;;;;;;5006013;28;20211;-89
2021/08/24 03:32:48;;;;;;;9.03;6.00;;;15.20;99.90;;;;;;4991677;28;20208;-85
2021/08/24 03:35:16;;;;;;;6.77;5.87;;;15.20;99.90;;;;;;4992174;28;20891;-90
2021/08/24 03:37:44;;;;;;;8.47;6.13;;;15.20;99.90;;;;;;4974514;28;20286;-82
2021/08/24 03:40:13;;;;;;;9.47;6.03;;;15.20;99.90;;;;;;4972304;28;20817;-90
2021/08/24 03:42:43;;;;;;;7.30;5.03;;;15.10;99.90;;;;;;5008409;23;20242;-91
2021/08/24 03:45:11;;;;;;;7.10;5.20;;;15.10;99.90;;;;;;5009751;28;20237;-91
2021/08/24 03:47:37;;;;;;;6.47;5.78;;;15.10;99.90;;;;;;5012436;28;20230;-82
2021/08/24 03:50:05;;;;;;;7.63;5.07;;;15.10;99.90;;;;;;4991465;28;20223;-92
2021/08/24 03:52:32;;;;;;;9.07;6.33;;;15.10;99.90;;;;;;4990725;28;20600;-84
2021/08/24 03:54:58;;;;;;;10.30;6.00;;;15.10;99.90;;;;;;4991424;28;20196;-82
2021/08/24 03:57:25;;;;;;;9.63;5.90;;;15.10;99.90;;;;;;4991413;28;20200;-79
2021/08/24 03:59:56;;;;;;;12.70;6.73;;;15.10;99.90;;;;;;5009790;28;20219;-80
2021/08/24 04:02:23;;;;;;;9.83;7.10;;;15.00;99.90;;;;;;4994055;28;20523;-81
2021/08/24 04:04:50;;;;;;;10.23;6.10;;;15.00;99.90;;;;;;4990944;28;20215;-80
2021/08/24 04:07:18;;;;;;;9.67;6.47;;;15.00;99.90;;;;;;4990437;28;20223;-80
2021/08/24 04:09:44;;;;;;;11.67;6.80;;;15.00;99.90;;;;;;4993413;28;20210;-84
2021/08/24 04:12:13;;;;;;;6.25;5.60;;;15.00;99.90;;;;;;5007151;28;20215;-79
2021/08/24 04:14:40;;;;;;;7.30;5.50;;;15.00;99.90;;;;;;5009540;28;20191;-80
2021/08/24 04:17:09;;;;;;;7.27;6.13;;;15.00;99.90;;;;;;5012049;28;20246;-80
2021/08/24 04:19:35;;;;;;;6.47;5.77;;;14.90;99.90;;;;;;5003188;28;20211;-90
2021/08/24 04:22:07;;;;;;;6.13;5.27;;;14.90;99.90;;;;;;4992990;28;20207;-90
2021/08/24 04:24:34;;;;;;;9.73;5.90;;;14.90;99.90;;;;;;4995346;28;20515;-84
2021/08/24 04:27:01;;;;;;;6.83;5.10;;;14.80;99.90;;;;;;4994819;28;20208;-83
2021/08/24 04:29:28;;;;;;;7.33;5.00;;;14.80;99.90;;;;;;4995188;28;20767;-83
2021/08/24 04:31:56;;;;;;;6.03;5.07;;;14.80;99.90;;;;;;5000940;28;20372;-86
2021/08/24 04:34:24;;;;;;;5.97;5.20;;;14.80;99.90;;;;;;5014467;28;20215;-83
2021/08/24 04:36:51;;;;;;;9.77;6.67;;;14.70;99.90;;;;;;5014100;28;20230;-81
2021/08/24 04:39:19;;;;;;;6.43;5.50;;;14.70;99.90;;;;;;5014945;28;20207;-81
2021/08/24 04:41:45;;;;;;;5.77;5.23;;;14.70;99.90;;;;;;5004803;28;20239;-87
2021/08/24 04:44:12;;;;;;;8.53;7.60;;;14.60;99.90;;;;;;5004934;28;20212;-90
2021/08/24 04:46:39;;;;;;;9.90;6.87;;;14.60;99.90;;;;;;4998860;28;20227;-81
2021/08/24 04:49:06;;;;;;;12.27;7.57;;;14.60;99.90;;;;;;4999750;28;20223;-81
2021/08/24 04:51:34;;;;;;;10.40;7.37;;;14.60;99.90;;;;;;5015784;28;20207;-81
2021/08/24 04:54:01;;;;;;;11.87;8.40;;;14.60;99.90;;;;;;5011650;28;20929;-80
2021/08/24 04:56:27;;;;;;;10.57;7.20;;;14.60;99.90;;;;;;5010731;28;20227;-83
2021/08/24 04:58:54;;;;;;;9.23;6.83;;;14.60;99.90;;;;;;4998742;23;20893;-82
2021/08/24 05:01:21;;;;;;;10.87;7.27;;;14.60;99.90;;;;;;4970249;28;20235;-85
2021/08/24 05:03:48;;;;;;;9.43;7.47;;;14.60;99.90;;;;;;4965557;28;20202;-84
2021/08/24 05:06:14;;;;;;;10.40;6.77;;;14.60;99.90;;;;;;4952608;29;20217;-80
2021/08/24 05:08:43;;;;;;;9.27;7.60;;;14.60;99.90;;;;;;4951665;28;20226;-80
2021/08/24 05:11:10;;;;;;;11.27;7.67;;;14.60;99.90;;;;;;4952384;29;20342;-79
2021/08/24 05:13:36;;;;;;;8.30;7.00;;;14.60;99.90;;;;;;4952119;29;20190;-86
2021/08/24 05:16:07;;;;;;;8.03;7.23;;;14.60;99.90;;;;;;4952796;29;20232;-88
2021/08/24 05:18:34;;;;;;;8.10;6.27;;;14.60;99.90;;;;;;4951767;28;20198;-83
2021/08/24 05:21:02;;;;;;;7.73;6.93;;;14.60;99.90;;;;;;4951715;29;20198;-83
2021/08/24 05:23:29;;;;;;;11.77;6.77;;;14.60;99.90;;;;;;4952393;29;20202;-89
2021/08/24 05:25:57;;;;;;;6.97;6.27;;;14.60;99.90;;;;;;4953714;28;20216;-90
2021/08/24 05:28:24;;;;;;;12.90;8.10;;;14.70;99.90;;;;;;4952271;29;20209;-80
2021/08/24 05:30:51;;;;;;;9.73;7.43;;;14.70;99.90;;;;;;4950550;29;20197;-82
2021/08/24 05:33:18;;;;;;;12.17;8.23;;;14.70;99.90;;;;;;4954065;29;20201;-80
2021/08/24 05:35:45;;;;;;;12.90;7.20;;;14.70;99.90;;;;;;4953337;28;20233;-80
2021/08/24 05:38:11;;;;;;;13.53;8.30;;;14.80;99.90;;;;;;4953499;29;20615;-79
2021/08/24 05:40:38;;;;;;;9.97;7.47;;;14.80;99.90;;;;;;4952650;28;20514;-80
2021/08/24 05:43:06;;;;;;;13.30;8.33;;;14.80;99.90;;;;;;4952080;29;20197;-89
2021/08/24 05:45:34;;;;;;;9.70;7.10;;;14.80;99.90;;;;;;4964500;28;20251;-92
2021/08/24 05:48:00;;;;;;;10.90;7.10;;;14.90;99.90;;;;;;4972135;28;20204;-80
2021/08/24 05:50:27;;;;;;;9.33;7.20;;;14.90;99.90;;;;;;4972204;28;20208;-82
2021/08/24 05:52:54;;;;;;;11.77;7.80;;;14.90;99.90;;;;;;4970539;28;20212;-81
2021/08/24 05:55:21;;;;;;;10.17;7.00;;;14.90;99.90;;;;;;4972858;28;20291;-92
2021/08/24 05:57:48;;;;;;;12.10;7.22;;;15.00;99.90;;;;;;4957285;28;20237;-86
2021/08/24 06:00:16;;;;;;;9.00;6.40;;;15.00;99.90;;;;;;4952592;29;20233;-90
2021/08/24 06:02:43;;;;;;;11.83;7.63;;;15.10;99.90;;;;;;4952431;29;20513;-89
2021/08/24 06:05:11;;;;;;;12.53;7.90;;;15.10;99.90;;;;;;4960565;28;20212;-90
2021/08/24 06:07:39;;;;;;;10.37;7.30;;;15.10;99.90;;;;;;4971366;28;20201;-90
2021/08/24 06:10:07;;;;;;;13.77;8.20;;;15.20;99.90;;;;;;4958088;28;20242;-84
2021/08/24 06:12:34;;;;;;;17.53;10.03;;;15.20;99.90;;;;;;4964023;28;20212;-90
2021/08/24 06:15:02;;;;;;;12.20;8.47;;;15.30;99.90;;;;;;4969356;28;20196;-87
2021/08/24 06:17:30;;;;;;;11.15;7.65;;;15.30;99.90;;;;;;4968792;28;20348;-82
2021/08/24 06:19:57;;;;;;;11.37;8.67;;;15.30;99.90;;;;;;4967809;28;20239;-82
2021/08/24 06:22:23;;;;;;;8.53;6.83;;;15.40;99.90;;;;;;4955821;28;20217;-90
2021/08/24 06:24:50;;;;;;;10.63;7.77;;;15.40;99.90;;;;;;4950605;28;20217;-81
2021/08/24 06:27:17;;;;;;;12.40;7.60;;;15.50;99.90;;;;;;4948296;29;20208;-84
2021/08/24 06:29:44;;;;;;;10.97;8.43;;;15.50;99.90;;;;;;4949681;28;20815;-80
2021/08/24 06:32:23;;;;;;;9.93;7.50;;;15.60;99.90;;;;;;4948770;29;20208;-87
2021/08/24 06:34:51;;;;;;;13.83;7.50;;;15.60;99.90;;;;;;4948273;28;20205;-83
2021/08/24 06:37:18;;;;;;;11.43;7.57;;;15.70;99.90;;;;;;4949803;29;20239;-81
2021/08/24 06:39:45;;;;;;;9.60;7.07;;;15.80;99.90;;;;;;4949157;29;20866;-81
2021/08/24 06:42:12;;;;;;;9.33;6.67;;;15.90;99.90;;;;;;4948555;28;20237;-81
2021/08/24 06:44:38;;;;;;;10.90;7.40;;;15.90;99.90;;;;;;4961550;28;20850;-85
2021/08/24 06:47:05;;;;;;;9.18;6.35;;;16.00;99.90;;;;;;4972783;28;20197;-83
2021/08/24 06:49:32;;;;;;;8.15;5.15;;;16.10;99.90;;;;;;4960219;28;20205;-81
2021/08/24 06:52:03;;;;;;;10.77;6.13;;;16.10;99.90;;;;;;4951180;29;20197;-82
2021/08/24 06:54:30;;;;;;;10.23;6.03;;;16.20;99.90;;;;;;4951352;29;20193;-83
2021/08/24 06:56:57;;;;;;;9.07;5.13;;;16.30;99.90;;;;;;4951255;28;20561;-82
2021/08/24 06:59:24;;;;;;;9.23;5.32;;;16.40;99.90;;;;;;4950373;29;20328;-84
2021/08/24 07:01:51;;;;;;;7.87;4.63;;;16.60;99.90;;;;;;4953769;28;20197;-81
2021/08/24 07:04:18;;;;;;;6.30;3.75;;;16.60;99.90;;;;;;4953826;28;20213;-81
2021/08/24 07:06:50;;;;;;;10.55;3.83;;;16.80;99.90;;;;;;4954745;28;20586;-81
2021/08/24 07:09:18;;;;;;;7.18;3.83;;;16.90;99.90;;;;;;4959205;28;20205;-81
2021/08/24 07:11:45;;;;;;;6.38;3.40;;;17.10;99.90;;;;;;4953509;28;20636;-84
2021/08/24 07:14:14;;;;;;;6.60;3.60;;;17.20;99.90;;;;;;4962838;28;20225;-85
2021/08/24 07:16:44;;;;;;;8.00;3.58;;;17.40;99.90;;;;;;4955904;28;20236;-86
2021/08/24 07:19:11;;;;;;;6.57;3.28;;;17.60;99.90;;;;;;4951166;29;20613;-82
2021/08/24 07:21:38;;;;;;;7.82;3.47;;;17.90;99.90;;;;;;4953039;28;20205;-83
2021/08/24 07:24:05;;;;;;;7.85;3.22;;;18.10;99.90;;;;;;4954716;29;20602;-87
2021/08/24 07:26:34;;;;;;;3.90;2.35;;;18.20;99.90;;;;;;4956994;29;20185;-86
2021/08/24 07:29:01;;;;;;;6.07;3.13;;;18.30;99.90;;;;;;4954877;29;20209;-85
2021/08/24 07:31:28;;;;;;;6.65;3.22;;;18.40;99.90;;;;;;4966491;28;20212;-84
2021/08/24 07:33:56;;;;;;;8.73;3.05;;;18.40;99.90;;;;;;4970488;28;20880;-82
2021/08/24 07:36:23;;;;;;;6.03;3.08;;;18.40;99.90;;;;;;4952552;29;20221;-89
2021/08/24 07:38:49;;;;;;;10.07;3.45;;;18.40;99.90;;;;;;4954235;29;20209;-86
2021/08/24 07:41:16;;;;;;;6.47;2.95;;;18.40;99.90;;;;;;4970847;28;20204;-86
2021/08/24 07:43:45;;;;;;;4.93;3.08;;;18.40;99.90;;;;;;4975545;28;20200;-84
2021/08/24 07:46:11;;;;;;;6.43;2.92;;;18.40;99.90;;;;;;4974113;28;20235;-84
2021/08/24 07:48:38;;;;;;;5.68;3.10;;;18.50;99.90;;;;;;4960084;28;20213;-84
2021/08/24 07:51:05;;;;;;;6.28;3.00;;;18.50;99.90;;;;;;4952104;29;20239;-82
2021/08/24 07:53:31;;;;;;;4.15;2.92;;;18.40;99.90;;;;;;4962454;28;20289;-84
2021/08/24 07:55:58;;;;;;;6.60;3.03;;;18.40;99.90;;;;;;4973750;28;20196;-85
2021/08/24 07:58:25;;;;;;;6.70;2.63;;;18.50;99.90;;;;;;4975043;28;20224;-86
2021/08/24 08:00:53;;;;;;;3.03;2.55;;;18.60;99.90;;;;;;4973637;28;20244;-84
2021/08/24 08:03:20;;;;;;;10.43;3.47;;;18.80;99.90;;;;;;4963764;28;20216;-86
2021/08/24 08:05:47;;;;;;;5.50;3.08;;;18.80;99.90;;;;;;4953492;28;20601;-83
2021/08/24 08:08:14;;;;;;;4.32;2.55;;;18.80;99.90;;;;;;4954132;29;20217;-82
2021/08/24 08:10:42;;;;;;;6.05;3.15;;;18.80;99.90;;;;;;4952899;29;20209;-82
2021/08/24 08:13:08;;;;;;;3.80;2.65;;;18.80;99.90;;;;;;4961660;29;20550;-85
2021/08/24 08:15:36;;;;;;;3.88;2.53;;;19.20;99.90;;;;;;4959775;28;20206;-83
2021/08/24 08:18:06;;;;;;;3.42;2.35;;;19.60;99.90;;;;;;4955110;29;20240;-85
2021/08/24 08:20:34;;;;;;;4.10;2.28;;;20.00;99.90;;;;;;4954110;28;20214;-84
2021/08/24 08:23:03;;;;;;;4.97;2.67;;;20.10;99.90;;;;;;4954683;29;20520;-88
2021/08/24 08:25:30;;;;;;;4.10;2.17;;;20.10;99.90;;;;;;4954763;29;20260;-86
2021/08/24 08:27:57;;;;;;;6.75;2.70;;;20.00;99.90;;;;;;4967492;28;20529;-84
2021/08/24 08:30:24;;;;;;;5.43;2.47;;;19.90;99.90;;;;;;4973556;28;20204;-84
2021/08/24 08:32:51;;;;;;;4.32;2.45;;;20.00;99.90;;;;;;4973399;28;20211;-85
2021/08/24 08:35:19;;;;;;;3.67;2.15;;;20.20;99.90;;;;;;4972737;28;20267;-85
2021/08/24 08:37:47;;;;;;;5.82;2.10;;;20.30;99.90;;;;;;4973520;28;20236;-84
2021/08/24 08:40:16;;;;;;;3.65;2.22;;;20.70;99.90;;;;;;4973981;28;20271;-85
2021/08/24 08:42:54;;;;;;;7.80;1.80;;;21.10;99.90;;;;;;4968501;28;20213;-83
2021/08/24 08:45:27;;;;;;;4.63;2.45;;;21.50;99.90;;;;;;4952853;28;20233;-85
2021/08/24 08:48:08;;;;;;;3.38;1.70;;;21.90;99.90;;;;;;4962842;28;20211;-84
2021/08/24 08:50:44;;;;;;;6.40;1.90;;;22.00;99.90;;;;;;4971638;28;20208;-82
2021/08/24 08:53:17;;;;;;;3.35;1.70;;;21.90;99.90;;;;;;4953786;28;20224;-83
2021/08/24 08:55:50;;;;;;;4.35;2.00;;;21.60;99.90;;;;;;4949098;29;20197;-82
2021/08/24 08:58:31;;;;;;;4.88;1.95;;;21.40;99.90;;;;;;4951631;29;20229;-83
2021/08/24 09:01:03;;;;;;;5.68;2.10;;;21.20;99.90;;;;;;4950424;28;20955;-83
2021/08/24 09:03:46;;;;;;;6.10;1.98;;;20.80;99.90;;;;;;4951155;29;20209;-83
2021/08/24 09:06:16;;;;;;;2.45;1.80;;;20.60;99.90;;;;;;4951957;28;20201;-84
2021/08/24 09:08:43;;;;;;;4.45;2.15;;;20.50;99.90;;;;;;4951626;29;20201;-83
2021/08/24 09:11:10;;;;;;;3.85;2.08;;;20.80;99.90;;;;;;4953207;28;20234;-83
2021/08/24 09:13:44;;;;;;;5.78;1.98;;;21.30;99.90;;;;;;4952667;29;20204;-87
2021/08/24 09:16:20;;;;;;;4.18;1.80;;;21.70;99.90;;;;;;4952120;28;20217;-83
2021/08/24 09:18:50;;;;;;;2.38;1.65;;;22.20;99.90;;;;;;4952845;29;20665;-84
2021/08/24 09:21:24;;;;;;;3.13;1.88;;;22.60;99.90;;;;;;4964465;28;20216;-83
2021/08/24 09:23:52;;;;;;;3.55;1.90;;;22.80;99.90;;;;;;4970003;28;20216;-82
2021/08/24 09:26:36;;;;;;;2.42;1.50;;;23.10;99.90;;;;;;4970635;28;20292;-84
2021/08/24 09:29:04;;;;;;;4.18;2.00;;;23.30;99.90;;;;;;4971289;28;20535;-84
2021/08/24 09:31:31;;;;;;;3.25;1.95;;;23.10;99.90;;;;;;4970182;28;20203;-84
2021/08/24 09:33:58;;;;;;;3.78;1.95;;;22.70;99.90;;;;;;4969970;28;20212;-83
2021/08/24 09:36:26;;;;;;;5.13;2.15;;;22.30;99.90;;;;;;4958443;28;20590;-84
2021/08/24 09:38:56;;;;;;;5.47;2.22;;;22.40;99.90;;;;;;4951798;29;20228;-86
2021/08/24 09:41:26;;;;;;;4.00;1.85;;;22.20;99.90;;;;;;4952774;29;20206;-86
2021/08/24 09:43:54;;;;;;;4.72;2.00;;;22.50;99.90;;;;;;4952198;28;20213;-83
2021/08/24 09:46:32;;;;;;;4.57;2.17;;;22.70;99.90;;;;;;4971984;28;20613;-82
2021/08/24 09:49:03;;;;;;;3.60;1.90;;;23.10;99.90;;;;;;4968283;28;20208;-84
2021/08/24 09:51:39;;;;;;;4.68;2.17;;;23.30;99.90;;;;;;4953200;29;20544;-83
2021/08/24 09:54:14;;;;;;;2.95;1.83;;;23.30;99.90;;;;;;4952516;29;20212;-82
2021/08/24 09:56:44;;;;;;;3.42;1.65;;;23.10;99.90;;;;;;4964964;28;20300;-81
2021/08/24 09:59:12;;;;;;;6.32;2.08;;;23.10;99.90;;;;;;5030554;23;20243;-83
2021/08/24 10:01:48;;;;;;;3.58;2.20;;;23.10;99.90;;;;;;5032364;28;20198;-83
2021/08/24 10:04:15;;;;;;;4.28;1.88;;;23.20;99.90;;;;;;5033083;28;20263;-84
2021/08/24 10:06:55;;;;;;;4.15;2.10;;;23.00;99.90;;;;;;5032900;28;20207;-82
2021/08/24 10:09:27;;;;;;;5.07;2.50;;;22.90;99.90;;;;;;5024109;28;20681;-81
2021/08/24 10:12:11;;;;;;;3.85;2.22;;;22.70;99.90;;;;;;5031940;28;20215;-84
2021/08/24 10:14:38;;;;;;;4.85;2.00;;;22.50;99.90;;;;;;5023260;28;20266;-84
2021/08/24 10:17:12;;;;;;;3.35;1.98;;;22.40;99.90;;;;;;5014284;28;20199;-88
2021/08/24 10:19:43;;;;;;;3.55;2.03;;;22.40;99.90;;;;;;5013078;28;20610;-82
2021/08/24 10:22:17;;;;;;;5.25;2.28;;;22.50;99.90;;;;;;5010822;28;20203;-82
2021/08/24 10:24:56;;;;;;;5.88;2.10;;;22.60;99.90;;;;;;5010042;28;20195;-81
2021/08/24 10:27:26;;;;;;;6.00;1.90;;;22.90;99.90;;;;;;5008245;28;20192;-83
2021/08/24 10:29:55;;;;;;;2.30;1.60;;;23.20;99.90;;;;;;5008493;28;20202;-83
2021/08/24 10:32:27;;;;;;;3.72;1.65;;;23.50;99.90;;;;;;5007893;28;20195;-81
2021/08/24 10:34:54;;;;;;;2.05;1.85;;;23.70;99.90;;;;;;5008508;28;20238;-81
2021/08/24 10:37:44;;;;;;;4.10;2.00;;;23.70;99.90;;;;;;5009779;28;20227;-82
2021/08/24 10:40:24;;;;;;;2.63;1.73;;;24.00;99.90;;;;;;5008781;28;20206;-80
2021/08/24 10:43:22;;;;;;;3.78;2.13;;;23.90;99.90;;;;;;5007048;28;20557;-82
2021/08/24 10:46:13;;;;;;;6.93;2.30;;;24.20;99.90;;;;;;4938229;28;20224;-82
2021/08/24 10:48:40;;;;;;;3.85;1.60;;;24.50;99.90;;;;;;5001937;28;20543;-83
2021/08/24 10:51:12;;;;;;;3.88;1.50;;;24.60;99.90;;;;;;5007604;28;20215;-82
2021/08/24 10:53:49;;;;;;;4.05;1.83;;;24.70;99.90;;;;;;5008074;28;20210;-82
2021/08/24 10:56:24;;;;;;;3.70;1.75;;;24.60;99.90;;;;;;5008247;28;20207;-82
2021/08/24 10:58:59;;;;;;;4.55;2.10;;;24.40;99.90;;;;;;5007560;28;20235;-80
2021/08/24 11:01:33;;;;;;;6.07;2.08;;;24.30;99.90;;;;;;5006451;28;20211;-84
2021/08/24 11:04:28;;;;;;;3.15;2.00;;;24.10;99.90;;;;;;5006386;28;20294;-84
2021/08/24 11:07:06;;;;;;;4.78;1.73;;;24.20;99.90;;;;;;5006743;28;20222;-81
2021/08/24 11:09:45;;;;;;;2.38;1.70;;;24.40;99.90;;;;;;5007531;28;20206;-81
2021/08/24 11:12:22;;;;;;;5.63;1.95;;;24.70;99.90;;;;;;5007768;28;20206;-83
2021/08/24 11:15:00;;;;;;;4.18;1.60;;;24.70;99.90;;;;;;5006782;28;20546;-83
2021/08/24 11:17:37;;;;;;;3.50;1.60;;;24.80;99.90;;;;;;5007323;28;20210;-81
2021/08/24 11:20:16;;;;;;;4.53;2.00;;;24.70;99.90;;;;;;5007371;28;20204;-80
2021/08/24 11:22:51;;;;;;;2.92;1.85;;;24.50;99.90;;;;;;5007132;28;20773;-82
2021/08/24 11:25:28;;;;;;;3.13;1.90;;;24.50;99.90;;;;;;5007815;28;20215;-82
2021/08/24 11:28:00;;;;;;;5.85;2.17;;;24.70;99.90;;;;;;5001548;28;20218;-83
2021/08/24 11:30:35;;;;;;;3.80;1.80;;;24.70;99.90;;;;;;4988332;28;20251;-82
2021/08/24 11:33:08;;;;;;;3.08;1.55;;;24.50;99.90;;;;;;4985513;28;20196;-83
2021/08/24 11:35:44;;;;;;;3.88;1.73;;;24.50;99.90;;;;;;4989142;28;20214;-83
2021/08/24 11:38:15;;;;;;;3.55;1.52;;;24.80;99.90;;;;;;4994360;28;20615;-80
2021/08/24 11:40:51;;;;;;;4.65;1.80;;;24.80;99.90;;;;;;4987943;28;20604;-81
2021/08/24 11:43:23;;;;;;;3.80;1.80;;;24.80;99.90;;;;;;4988974;28;20207;-81
2021/08/24 11:45:52;;;;;;;2.30;1.73;;;24.60;99.90;;;;;;4992474;28;20504;-81
2021/08/24 11:48:24;;;;;;;4.03;1.95;;;24.50;99.90;;;;;;5003496;28;20310;-80
2021/08/24 11:50:57;;;;;;;4.75;1.77;;;24.30;99.90;;;;;;5004934;28;20195;-81
2021/08/24 11:53:32;;;;;;;2.70;1.80;;;24.10;99.90;;;;;;5006231;28;20484;-82
2021/08/24 11:56:03;;;;;;;1.83;1.48;;;24.10;99.90;;;;;;5002553;28;20210;-81
2021/08/24 11:58:38;;;;;;;4.03;1.90;;;23.90;99.90;;;;;;5004767;28;20239;-81
2021/08/24 12:01:06;;;;;;;5.05;1.90;;;23.90;99.90;;;;;;5005353;28;20218;-82
2021/08/24 12:03:37;;;;;;;5.25;2.13;;;24.00;99.90;;;;;;5007388;28;20207;-83
2021/08/24 12:06:09;;;;;;;2.10;1.60;;;23.90;99.90;;;;;;5011384;28;20223;-84
2021/08/24 12:08:43;;;;;;;5.40;1.95;;;23.60;99.90;;;;;;5010186;28;20217;-83
2021/08/24 12:11:15;;;;;;;3.05;1.70;;;23.30;99.90;;;;;;5010508;28;20304;-87
2021/08/24 12:13:46;;;;;;;3.22;1.92;;;23.20;99.90;;;;;;5011412;28;20215;-80
2021/08/24 12:16:32;;;;;;;3.75;1.75;;;23.30;99.90;;;;;;5010382;28;20524;-83
2021/08/24 12:19:18;;;;;;;3.15;1.70;;;23.50;99.90;;;;;;5007479;28;20231;-84
2021/08/24 12:21:49;;;;;;;2.75;1.65;;;23.40;99.90;;;;;;5008247;28;20223;-82
2021/08/24 12:24:50;;;;;;;2.83;1.42;;;23.40;99.90;;;;;;5008124;28;20219;-83
2021/08/24 12:27:52;;;;;;;6.47;2.05;;;23.10;99.90;;;;;;4975064;28;20229;-82
2021/08/24 12:30:23;;;;;;;2.78;1.60;;;23.10;99.90;;;;;;4989191;28;20382;-81
2021/08/24 12:33:10;;;;;;;3.20;1.60;;;23.50;99.90;;;;;;5001245;28;20211;-81
2021/08/24 12:35:40;;;;;;;2.38;1.60;;;23.80;99.90;;;;;;5009376;28;20587;-80
2021/08/24 12:38:09;;;;;;;2.35;1.38;;;23.80;99.90;;;;;;5028461;28;20226;-81
2021/08/24 12:40:59;;;;;;;2.40;1.40;;;23.80;99.90;;;;;;5017497;28;20215;-81
2021/08/24 12:43:42;;;;;;;3.33;1.95;;;23.50;99.90;;;;;;5008697;28;20245;-80
2021/08/24 12:46:30;;;;;;;4.63;1.70;;;23.30;99.90;;;;;;5003663;28;20820;-81
2021/08/24 12:49:40;;;;;;;4.30;1.73;;;23.40;99.90;;;;;;5008081;28;20888;-79
2021/08/24 12:52:30;;;;;;;4.10;1.90;;;23.80;99.90;;;;;;5009074;28;20247;-80
2021/08/24 12:55:02;;;;;;;3.25;1.80;;;24.00;99.90;;;;;;5002971;28;20305;-81
2021/08/24 12:57:36;;;;;;;4.32;1.83;;;24.10;99.90;;;;;;4989497;28;20243;-80
2021/08/24 13:00:20;;;;;;;3.17;1.55;;;23.80;99.90;;;;;;4988031;28;20388;-82
2021/08/24 13:02:54;;;;;;;4.68;1.70;;;23.70;99.90;;;;;;4988003;28;20224;-83
2021/08/24 13:05:26;;;;;;;5.50;1.50;;;23.80;99.90;;;;;;5015640;28;20218;-82